sensor_id;sensor_type;location;lat;lon;timestamp;temperature;humidity
20946;DHT22;10632;51.276;7.116;2023-10-09T00:01:43;15.30;99.90
20946;DHT22;10632;51.276;7.116;2023-10-09T00:04:11;15.30;99.90
20946;DHT22;10632;51.276;7.116;2023-10-09T00:06:40;15.30;99.90
20946;DHT22;10632;51.276;7.116;2023-10-09T00:09:09;15.30;99.90
20946;DHT22;10632;51.276;7.116;2023-10-09T00:11:56;15.30;99.90
20946;DHT22;10632;51.276;7.116;2023-10-09T00:14:27;15.30;99.90
20946;DHT22;10632;51.276;7.116;2023-10-09T00:16:56;15.30;99.90
20946;DHT22;10632;51.276;7.116;2023-10-09T00:19:31;15.20;99.90
20946;DHT22;10632;51.276;7.116;2023-10-09T00:21:59;15.30;99.90
20946;DHT22;10632;51.276;7.116;2023-10-09T00:24:33;15.30;99.90
20946;DHT22;10632;51.276;7.116;2023-10-09T00:27:00;15.30;99.90
20946;DHT22;10632;51.276;7.116;2023-10-09T00:29:37;15.30;99.90
20946;DHT22;10632;51.276;7.116;2023-10-09T00:32:10;15.30;99.90
20946;DHT22;10632;51.276;7.116;2023-10-09T00:34:48;15.30;99.90
20946;DHT22;10632;51.276;7.116;2023-10-09T00:37:16;15.30;99.90
20946;DHT22;10632;51.276;7.116;2023-10-09T00:39:49;15.30;99.90
20946;DHT22;10632;51.276;7.116;2023-10-09T00:42:21;15.30;99.90
20946;DHT22;10632;51.276;7.116;2023-10-09T00:44:57;15.30;99.90
20946;DHT22;10632;51.276;7.116;2023-10-09T00:47:28;15.30;99.90
20946;DHT22;10632;51.276;7.116;2023-10-09T00:50:04;15.30;99.90
20946;DHT22;10632;51.276;7.116;2023-10-09T00:52:50;15.30;99.90
20946;DHT22;10632;51.276;7.116;2023-10-09T00:55:21;15.30;99.90
20946;DHT22;10632;51.276;7.116;2023-10-09T00:58:05;15.30;99.90
20946;DHT22;10632;51.276;7.116;2023-10-09T01:00:38;15.30;99.90
20946;DHT22;10632;51.276;7.116;2023-10-09T01:03:13;15.30;99.90
20946;DHT22;10632;51.276;7.116;2023-10-09T01:05:46;15.20;99.90
20946;DHT22;10632;51.276;7.116;2023-10-09T01:08:18;15.20;99.90
20946;DHT22;10632;51.276;7.116;2023-10-09T01:10:53;15.20;99.90
20946;DHT22;10632;51.276;7.116;2023-10-09T01:13:23;15.20;99.90
20946;DHT22;10632;51.276;7.116;2023-10-09T01:16:05;15.20;99.90
20946;DHT22;10632;51.276;7.116;2023-10-09T01:18:32;15.20;99.90
20946;DHT22;10632;51.276;7.116;2023-10-09T01:21:03;15.20;99.90
20946;DHT22;10632;51.276;7.116;2023-10-09T01:23:31;15.20;99.90
20946;DHT22;10632;51.276;7.116;2023-10-09T01:25:58;15.20;99.90
20946;DHT22;10632;51.276;7.116;2023-10-09T01:28:25;15.20;99.90
20946;DHT22;10632;51.276;7.116;2023-10-09T01:30:54;15.20;99.90
20946;DHT22;10632;51.276;7.116;2023-10-09T01:33:23;15.20;99.90
20946;DHT22;10632;51.276;7.116;2023-10-09T01:35:53;15.20;99.90
20946;DHT22;10632;51.276;7.116;2023-10-09T01:38:24;15.20;99.90
20946;DHT22;10632;51.276;7.116;2023-10-09T01:41:10;15.20;99.90
20946;DHT22;10632;51.276;7.116;2023-10-09T01:43:45;15.20;99.90
20946;DHT22;10632;51.276;7.116;2023-10-09T01:46:16;15.20;99.90
20946;DHT22;10632;51.276;7.116;2023-10-09T01:48:45;15.20;99.90
20946;DHT22;10632;51.276;7.116;2023-10-09T01:51:16;15.20;99.90
20946;DHT22;10632;51.276;7.116;2023-10-09T01:53:43;15.20;99.90
20946;DHT22;10632;51.276;7.116;2023-10-09T01:56:17;15.20;99.90
20946;DHT22;10632;51.276;7.116;2023-10-09T01:58:47;15.20;99.90
20946;DHT22;10632;51.276;7.116;2023-10-09T02:01:18;15.10;99.90
20946;DHT22;10632;51.276;7.116;2023-10-09T02:03:46;15.20;99.90
20946;DHT22;10632;51.276;7.116;2023-10-09T02:06:17;15.20;99.90
20946;DHT22;10632;51.276;7.116;2023-10-09T02:08:52;15.20;99.90
20946;DHT22;10632;51.276;7.116;2023-10-09T02:11:20;15.10;99.90
20946;DHT22;10632;51.276;7.116;2023-10-09T02:14:03;15.20;99.90
20946;DHT22;10632;51.276;7.116;2023-10-09T02:16:41;15.10;99.90
20946;DHT22;10632;51.276;7.116;2023-10-09T02:19:08;15.10;99.90
20946;DHT22;10632;51.276;7.116;2023-10-09T02:21:54;15.10;99.90
20946;DHT22;10632;51.276;7.116;2023-10-09T02:24:23;15.00;99.90
20946;DHT22;10632;51.276;7.116;2023-10-09T02:27:09;15.00;99.90
20946;DHT22;10632;51.276;7.116;2023-10-09T02:29:41;15.00;99.90
20946;DHT22;10632;51.276;7.116;2023-10-09T02:32:08;15.00;99.90
20946;DHT22;10632;51.276;7.116;2023-10-09T02:34:51;15.00;99.90
20946;DHT22;10632;51.276;7.116;2023-10-09T02:37:19;15.00;99.90
20946;DHT22;10632;51.276;7.116;2023-10-09T02:39:50;14.90;99.90
20946;DHT22;10632;51.276;7.116;2023-10-09T02:42:19;15.00;99.90
20946;DHT22;10632;51.276;7.116;2023-10-09T02:44:49;15.00;99.90
20946;DHT22;10632;51.276;7.116;2023-10-09T02:47:17;15.00;99.90
20946;DHT22;10632;51.276;7.116;2023-10-09T02:49:47;15.00;99.90
20946;DHT22;10632;51.276;7.116;2023-10-09T02:52:15;15.00;99.90
20946;DHT22;10632;51.276;7.116;2023-10-09T02:54:44;15.00;99.90
20946;DHT22;10632;51.276;7.116;2023-10-09T02:57:13;15.00;99.90
20946;DHT22;10632;51.276;7.116;2023-10-09T02:59:49;15.00;99.90
20946;DHT22;10632;51.276;7.116;2023-10-09T03:02:17;15.00;99.90
20946;DHT22;10632;51.276;7.116;2023-10-09T03:04:45;15.00;99.90
20946;DHT22;10632;51.276;7.116;2023-10-09T03:07:12;15.00;99.90
20946;DHT22;10632;51.276;7.116;2023-10-09T03:09:39;15.00;99.90
20946;DHT22;10632;51.276;7.116;2023-10-09T03:12:07;15.00;99.90
20946;DHT22;10632;51.276;7.116;2023-10-09T03:14:38;15.00;99.90
20946;DHT22;10632;51.276;7.116;2023-10-09T03:17:08;15.00;99.90
20946;DHT22;10632;51.276;7.116;2023-10-09T03:19:37;15.00;99.90
20946;DHT22;10632;51.276;7.116;2023-10-09T03:22:04;15.00;99.90
20946;DHT22;10632;51.276;7.116;2023-10-09T03:24:34;15.00;99.90
20946;DHT22;10632;51.276;7.116;2023-10-09T03:27:02;15.00;99.90
20946;DHT22;10632;51.276;7.116;2023-10-09T03:29:29;15.00;99.90
20946;DHT22;10632;51.276;7.116;2023-10-09T03:31:56;15.00;99.90
20946;DHT22;10632;51.276;7.116;2023-10-09T03:34:24;15.00;99.90
20946;DHT22;10632;51.276;7.116;2023-10-09T03:36:51;15.00;99.90
20946;DHT22;10632;51.276;7.116;2023-10-09T03:39:29;15.00;99.90
20946;DHT22;10632;51.276;7.116;2023-10-09T03:42:00;15.00;99.90
20946;DHT22;10632;51.276;7.116;2023-10-09T03:44:31;15.10;99.90
20946;DHT22;10632;51.276;7.116;2023-10-09T03:46:59;15.10;99.90
20946;DHT22;10632;51.276;7.116;2023-10-09T03:49:28;15.10;99.90
20946;DHT22;10632;51.276;7.116;2023-10-09T03:51:55;15.10;99.90
20946;DHT22;10632;51.276;7.116;2023-10-09T03:54:25;15.10;99.90
20946;DHT22;10632;51.276;7.116;2023-10-09T03:56:55;15.10;99.90
20946;DHT22;10632;51.276;7.116;2023-10-09T03:59:24;15.10;99.90
20946;DHT22;10632;51.276;7.116;2023-10-09T04:01:56;15.10;99.90
20946;DHT22;10632;51.276;7.116;2023-10-09T04:04:23;15.10;99.90
20946;DHT22;10632;51.276;7.116;2023-10-09T04:06:52;15.10;99.90
20946;DHT22;10632;51.276;7.116;2023-10-09T04:09:19;15.10;99.90
20946;DHT22;10632;51.276;7.116;2023-10-09T04:12:01;15.10;99.90
20946;DHT22;10632;51.276;7.116;2023-10-09T04:14:45;15.10;99.90
20946;DHT22;10632;51.276;7.116;2023-10-09T04:17:20;15.10;99.90
20946;DHT22;10632;51.276;7.116;2023-10-09T04:19:59;15.10;99.90
20946;DHT22;10632;51.276;7.116;2023-10-09T04:23:14;15.10;99.90
20946;DHT22;10632;51.276;7.116;2023-10-09T04:25:41;15.10;99.90
20946;DHT22;10632;51.276;7.116;2023-10-09T04:28:11;15.10;99.90
20946;DHT22;10632;51.276;7.116;2023-10-09T04:30:45;15.10;99.90
20946;DHT22;10632;51.276;7.116;2023-10-09T04:33:19;15.10;99.90
20946;DHT22;10632;51.276;7.116;2023-10-09T04:36:01;15.10;99.90
20946;DHT22;10632;51.276;7.116;2023-10-09T04:38:51;15.00;99.90
20946;DHT22;10632;51.276;7.116;2023-10-09T04:41:38;15.00;99.90
20946;DHT22;10632;51.276;7.116;2023-10-09T04:44:18;15.00;99.90
20946;DHT22;10632;51.276;7.116;2023-10-09T04:46:44;15.10;99.90
20946;DHT22;10632;51.276;7.116;2023-10-09T04:49:31;15.00;99.90
20946;DHT22;10632;51.276;7.116;2023-10-09T04:52:15;15.10;99.90
20946;DHT22;10632;51.276;7.116;2023-10-09T04:55:06;15.00;99.90
20946;DHT22;10632;51.276;7.116;2023-10-09T04:57:44;15.10;99.90
20946;DHT22;10632;51.276;7.116;2023-10-09T05:00:26;15.10;99.90
20946;DHT22;10632;51.276;7.116;2023-10-09T05:03:12;15.10;99.90
20946;DHT22;10632;51.276;7.116;2023-10-09T05:05:51;15.10;99.90
20946;DHT22;10632;51.276;7.116;2023-10-09T05:08:26;15.10;99.90
20946;DHT22;10632;51.276;7.116;2023-10-09T05:10:58;15.10;99.90
20946;DHT22;10632;51.276;7.116;2023-10-09T05:13:41;15.10;99.90
20946;DHT22;10632;51.276;7.116;2023-10-09T05:16:10;15.10;99.90
20946;DHT22;10632;51.276;7.116;2023-10-09T05:18:44;15.10;99.90
20946;DHT22;10632;51.276;7.116;2023-10-09T05:21:21;15.10;99.90
20946;DHT22;10632;51.276;7.116;2023-10-09T05:24:11;15.10;99.90
20946;DHT22;10632;51.276;7.116;2023-10-09T05:26:47;15.10;99.90
20946;DHT22;10632;51.276;7.116;2023-10-09T05:29:20;15.10;99.90
20946;DHT22;10632;51.276;7.116;2023-10-09T05:32:01;15.10;99.90
20946;DHT22;10632;51.276;7.116;2023-10-09T05:34:41;15.10;99.90
20946;DHT22;10632;51.276;7.116;2023-10-09T05:37:35;15.10;99.90
20946;DHT22;10632;51.276;7.116;2023-10-09T05:40:09;15.10;99.90
20946;DHT22;10632;51.276;7.116;2023-10-09T05:42:48;15.10;99.90
20946;DHT22;10632;51.276;7.116;2023-10-09T05:45:25;15.00;99.90
20946;DHT22;10632;51.276;7.116;2023-10-09T05:48:24;15.10;99.90
20946;DHT22;10632;51.276;7.116;2023-10-09T05:51:27;15.00;99.90
20946;DHT22;10632;51.276;7.116;2023-10-09T05:54:11;15.10;99.90
20946;DHT22;10632;51.276;7.116;2023-10-09T05:57:09;15.10;99.90
20946;DHT22;10632;51.276;7.116;2023-10-09T05:59:50;15.10;99.90
20946;DHT22;10632;51.276;7.116;2023-10-09T06:02:34;15.10;99.90
20946;DHT22;10632;51.276;7.116;2023-10-09T06:05:18;15.10;99.90
20946;DHT22;10632;51.276;7.116;2023-10-09T06:08:01;15.10;99.90
20946;DHT22;10632;51.276;7.116;2023-10-09T06:10:33;15.00;99.90
20946;DHT22;10632;51.276;7.116;2023-10-09T06:13:08;15.10;99.90
20946;DHT22;10632;51.276;7.116;2023-10-09T06:15:55;15.00;99.90
20946;DHT22;10632;51.276;7.116;2023-10-09T06:18:40;15.00;99.90
20946;DHT22;10632;51.276;7.116;2023-10-09T06:21:07;15.00;99.90
20946;DHT22;10632;51.276;7.116;2023-10-09T06:23:46;15.00;99.90
20946;DHT22;10632;51.276;7.116;2023-10-09T06:26:30;15.00;99.90
20946;DHT22;10632;51.276;7.116;2023-10-09T06:28:58;15.00;99.90
20946;DHT22;10632;51.276;7.116;2023-10-09T06:31:39;15.00;99.90
20946;DHT22;10632;51.276;7.116;2023-10-09T06:34:27;15.00;99.90
20946;DHT22;10632;51.276;7.116;2023-10-09T06:37:01;15.00;99.90
20946;DHT22;10632;51.276;7.116;2023-10-09T06:39:34;15.00;99.90
20946;DHT22;10632;51.276;7.116;2023-10-09T06:42:18;15.00;99.90
20946;DHT22;10632;51.276;7.116;2023-10-09T06:45:00;15.00;99.90
20946;DHT22;10632;51.276;7.116;2023-10-09T06:47:31;15.00;99.90
20946;DHT22;10632;51.276;7.116;2023-10-09T06:50:07;15.00;99.90
20946;DHT22;10632;51.276;7.116;2023-10-09T06:52:50;15.00;99.90
20946;DHT22;10632;51.276;7.116;2023-10-09T06:55:37;15.00;99.90
20946;DHT22;10632;51.276;7.116;2023-10-09T06:58:14;15.00;99.90
20946;DHT22;10632;51.276;7.116;2023-10-09T07:00:42;15.00;99.90
20946;DHT22;10632;51.276;7.116;2023-10-09T07:03:26;15.00;99.90
20946;DHT22;10632;51.276;7.116;2023-10-09T07:06:05;15.00;99.90
20946;DHT22;10632;51.276;7.116;2023-10-09T07:08:35;15.00;99.90
20946;DHT22;10632;51.276;7.116;2023-10-09T07:11:05;15.00;99.90
20946;DHT22;10632;51.276;7.116;2023-10-09T07:14:04;15.00;99.90
20946;DHT22;10632;51.276;7.116;2023-10-09T07:16:32;15.10;99.90
20946;DHT22;10632;51.276;7.116;2023-10-09T07:19:04;15.10;99.90
20946;DHT22;10632;51.276;7.116;2023-10-09T07:21:50;15.10;99.90
20946;DHT22;10632;51.276;7.116;2023-10-09T07:24:19;15.10;99.90
20946;DHT22;10632;51.276;7.116;2023-10-09T07:27:04;15.10;99.90
20946;DHT22;10632;51.276;7.116;2023-10-09T07:29:34;15.10;99.90
20946;DHT22;10632;51.276;7.116;2023-10-09T07:32:13;15.10;99.90
20946;DHT22;10632;51.276;7.116;2023-10-09T07:34:46;15.10;99.90
20946;DHT22;10632;51.276;7.116;2023-10-09T07:37:26;15.20;99.90
20946;DHT22;10632;51.276;7.116;2023-10-09T07:39:56;15.20;99.90
20946;DHT22;10632;51.276;7.116;2023-10-09T07:42:25;15.20;99.90
20946;DHT22;10632;51.276;7.116;2023-10-09T07:45:10;15.20;99.90
20946;DHT22;10632;51.276;7.116;2023-10-09T07:47:59;15.30;99.90
20946;DHT22;10632;51.276;7.116;2023-10-09T07:50:35;15.20;99.90
20946;DHT22;10632;51.276;7.116;2023-10-09T07:53:06;15.20;99.90
20946;DHT22;10632;51.276;7.116;2023-10-09T07:55:44;15.30;99.90
20946;DHT22;10632;51.276;7.116;2023-10-09T07:58:21;15.30;99.90
20946;DHT22;10632;51.276;7.116;2023-10-09T08:00:52;15.30;99.90
20946;DHT22;10632;51.276;7.116;2023-10-09T08:03:41;15.30;99.90
20946;DHT22;10632;51.276;7.116;2023-10-09T08:06:11;15.30;99.90
20946;DHT22;10632;51.276;7.116;2023-10-09T08:08:56;15.40;99.90
20946;DHT22;10632;51.276;7.116;2023-10-09T08:11:36;15.40;99.90
20946;DHT22;10632;51.276;7.116;2023-10-09T08:14:25;15.40;99.90
20946;DHT22;10632;51.276;7.116;2023-10-09T08:17:06;15.40;99.90
20946;DHT22;10632;51.276;7.116;2023-10-09T08:19:41;15.40;99.90
20946;DHT22;10632;51.276;7.116;2023-10-09T08:22:28;15.40;99.90
20946;DHT22;10632;51.276;7.116;2023-10-09T08:25:18;15.40;99.90
20946;DHT22;10632;51.276;7.116;2023-10-09T08:27:56;15.40;99.90
20946;DHT22;10632;51.276;7.116;2023-10-09T08:30:50;15.40;99.90
20946;DHT22;10632;51.276;7.116;2023-10-09T08:33:28;15.50;99.90
20946;DHT22;10632;51.276;7.116;2023-10-09T08:36:07;15.50;99.90
20946;DHT22;10632;51.276;7.116;2023-10-09T08:38:35;15.50;99.90
20946;DHT22;10632;51.276;7.116;2023-10-09T08:41:09;15.50;99.90
20946;DHT22;10632;51.276;7.116;2023-10-09T08:43:47;15.50;99.90
20946;DHT22;10632;51.276;7.116;2023-10-09T08:46:19;15.60;99.90
20946;DHT22;10632;51.276;7.116;2023-10-09T08:48:47;15.60;99.90
20946;DHT22;10632;51.276;7.116;2023-10-09T08:51:16;15.60;99.90
20946;DHT22;10632;51.276;7.116;2023-10-09T08:53:43;15.60;99.90
20946;DHT22;10632;51.276;7.116;2023-10-09T08:56:12;15.70;99.90
20946;DHT22;10632;51.276;7.116;2023-10-09T08:58:41;15.70;99.90
20946;DHT22;10632;51.276;7.116;2023-10-09T09:01:08;15.70;99.90
20946;DHT22;10632;51.276;7.116;2023-10-09T09:03:42;15.70;99.90
20946;DHT22;10632;51.276;7.116;2023-10-09T09:06:10;15.70;99.90
20946;DHT22;10632;51.276;7.116;2023-10-09T09:08:37;15.70;99.90
20946;DHT22;10632;51.276;7.116;2023-10-09T09:11:07;15.70;99.90
20946;DHT22;10632;51.276;7.116;2023-10-09T09:13:42;15.70;99.90
20946;DHT22;10632;51.276;7.116;2023-10-09T09:16:16;15.70;99.90
20946;DHT22;10632;51.276;7.116;2023-10-09T09:18:52;15.70;99.90
20946;DHT22;10632;51.276;7.116;2023-10-09T09:21:26;15.70;99.90
20946;DHT22;10632;51.276;7.116;2023-10-09T09:23:56;15.70;99.90
20946;DHT22;10632;51.276;7.116;2023-10-09T09:26:34;15.70;99.90
20946;DHT22;10632;51.276;7.116;2023-10-09T09:29:05;15.80;99.90
20946;DHT22;10632;51.276;7.116;2023-10-09T09:31:33;15.80;99.90
20946;DHT22;10632;51.276;7.116;2023-10-09T09:34:05;15.90;99.90
20946;DHT22;10632;51.276;7.116;2023-10-09T09:36:53;15.90;99.90
20946;DHT22;10632;51.276;7.116;2023-10-09T09:39:22;16.10;99.90
20946;DHT22;10632;51.276;7.116;2023-10-09T09:41:56;16.10;99.90
20946;DHT22;10632;51.276;7.116;2023-10-09T09:44:31;16.30;99.90
20946;DHT22;10632;51.276;7.116;2023-10-09T09:47:00;16.30;99.90
20946;DHT22;10632;51.276;7.116;2023-10-09T09:49:28;16.40;99.90
20946;DHT22;10632;51.276;7.116;2023-10-09T09:52:02;16.50;99.90
20946;DHT22;10632;51.276;7.116;2023-10-09T09:54:36;16.50;99.90
20946;DHT22;10632;51.276;7.116;2023-10-09T09:57:07;16.50;99.90
20946;DHT22;10632;51.276;7.116;2023-10-09T09:59:38;16.60;99.90
20946;DHT22;10632;51.276;7.116;2023-10-09T10:02:20;16.60;99.90
20946;DHT22;10632;51.276;7.116;2023-10-09T10:04:53;16.60;99.90
20946;DHT22;10632;51.276;7.116;2023-10-09T10:07:22;16.60;99.90
20946;DHT22;10632;51.276;7.116;2023-10-09T10:09:50;16.60;99.90
20946;DHT22;10632;51.276;7.116;2023-10-09T10:12:48;16.60;99.90
20946;DHT22;10632;51.276;7.116;2023-10-09T10:16:04;16.60;99.90
20946;DHT22;10632;51.276;7.116;2023-10-09T10:18:53;16.70;99.90
20946;DHT22;10632;51.276;7.116;2023-10-09T10:21:27;16.70;99.90
20946;DHT22;10632;51.276;7.116;2023-10-09T10:24:40;16.70;99.90
20946;DHT22;10632;51.276;7.116;2023-10-09T10:27:21;16.70;99.90
20946;DHT22;10632;51.276;7.116;2023-10-09T10:30:27;16.80;99.90
20946;DHT22;10632;51.276;7.116;2023-10-09T10:33:00;16.80;99.90
20946;DHT22;10632;51.276;7.116;2023-10-09T10:35:36;16.90;99.90
20946;DHT22;10632;51.276;7.116;2023-10-09T10:38:27;16.90;99.90
20946;DHT22;10632;51.276;7.116;2023-10-09T10:41:09;16.90;99.90
20946;DHT22;10632;51.276;7.116;2023-10-09T10:43:38;16.90;99.90
20946;DHT22;10632;51.276;7.116;2023-10-09T10:46:21;17.00;99.90
20946;DHT22;10632;51.276;7.116;2023-10-09T10:48:56;17.00;99.90
20946;DHT22;10632;51.276;7.116;2023-10-09T10:51:26;17.00;99.90
20946;DHT22;10632;51.276;7.116;2023-10-09T10:54:02;17.00;99.90
20946;DHT22;10632;51.276;7.116;2023-10-09T10:56:43;17.00;99.90
20946;DHT22;10632;51.276;7.116;2023-10-09T10:59:12;17.10;99.90
20946;DHT22;10632;51.276;7.116;2023-10-09T11:01:38;17.10;99.90
20946;DHT22;10632;51.276;7.116;2023-10-09T11:04:25;17.10;99.90
20946;DHT22;10632;51.276;7.116;2023-10-09T11:07:05;17.10;99.90
20946;DHT22;10632;51.276;7.116;2023-10-09T11:09:44;17.20;99.90
20946;DHT22;10632;51.276;7.116;2023-10-09T11:12:25;17.20;99.90
20946;DHT22;10632;51.276;7.116;2023-10-09T11:15:04;17.20;99.90
20946;DHT22;10632;51.276;7.116;2023-10-09T11:17:58;17.30;99.90
20946;DHT22;10632;51.276;7.116;2023-10-09T11:20:30;17.30;99.90
20946;DHT22;10632;51.276;7.116;2023-10-09T11:22:59;17.40;99.90
20946;DHT22;10632;51.276;7.116;2023-10-09T11:25:46;17.40;99.90
20946;DHT22;10632;51.276;7.116;2023-10-09T11:28:25;17.50;99.90
20946;DHT22;10632;51.276;7.116;2023-10-09T11:31:06;17.50;99.90
20946;DHT22;10632;51.276;7.116;2023-10-09T11:33:45;17.60;99.90
20946;DHT22;10632;51.276;7.116;2023-10-09T11:36:17;17.70;99.90
20946;DHT22;10632;51.276;7.116;2023-10-09T11:38:47;17.70;99.90
20946;DHT22;10632;51.276;7.116;2023-10-09T11:41:17;17.70;99.90
20946;DHT22;10632;51.276;7.116;2023-10-09T11:43:50;17.70;99.90
20946;DHT22;10632;51.276;7.116;2023-10-09T11:46:25;17.70;99.90
20946;DHT22;10632;51.276;7.116;2023-10-09T11:49:12;17.70;99.90
20946;DHT22;10632;51.276;7.116;2023-10-09T11:52:05;17.70;99.90
20946;DHT22;10632;51.276;7.116;2023-10-09T11:54:49;17.70;99.90
20946;DHT22;10632;51.276;7.116;2023-10-09T11:57:18;17.80;99.90
20946;DHT22;10632;51.276;7.116;2023-10-09T11:59:57;17.80;99.90
20946;DHT22;10632;51.276;7.116;2023-10-09T12:02:28;17.80;99.90
20946;DHT22;10632;51.276;7.116;2023-10-09T12:04:56;17.90;99.90
20946;DHT22;10632;51.276;7.116;2023-10-09T12:07:24;17.90;99.90
20946;DHT22;10632;51.276;7.116;2023-10-09T12:09:53;18.00;99.90
20946;DHT22;10632;51.276;7.116;2023-10-09T12:12:24;18.10;99.90
20946;DHT22;10632;51.276;7.116;2023-10-09T12:14:53;18.10;99.90
20946;DHT22;10632;51.276;7.116;2023-10-09T12:17:19;18.10;99.90
20946;DHT22;10632;51.276;7.116;2023-10-09T12:19:52;18.10;99.90
20946;DHT22;10632;51.276;7.116;2023-10-09T12:22:22;18.10;99.90
20946;DHT22;10632;51.276;7.116;2023-10-09T12:24:52;18.10;99.90
20946;DHT22;10632;51.276;7.116;2023-10-09T12:27:19;18.10;99.90
20946;DHT22;10632;51.276;7.116;2023-10-09T12:29:49;18.10;99.90
20946;DHT22;10632;51.276;7.116;2023-10-09T12:32:15;18.00;99.90
20946;DHT22;10632;51.276;7.116;2023-10-09T12:34:48;18.00;99.90
20946;DHT22;10632;51.276;7.116;2023-10-09T12:37:19;18.00;99.90
20946;DHT22;10632;51.276;7.116;2023-10-09T12:39:46;18.00;99.90
20946;DHT22;10632;51.276;7.116;2023-10-09T12:42:13;18.00;99.90
20946;DHT22;10632;51.276;7.116;2023-10-09T12:44:44;17.90;99.90
20946;DHT22;10632;51.276;7.116;2023-10-09T12:47:13;18.00;99.90
20946;DHT22;10632;51.276;7.116;2023-10-09T12:49:44;18.00;99.90
20946;DHT22;10632;51.276;7.116;2023-10-09T12:52:11;18.00;99.90
20946;DHT22;10632;51.276;7.116;2023-10-09T12:54:41;18.00;99.90
20946;DHT22;10632;51.276;7.116;2023-10-09T12:57:09;18.00;99.90
20946;DHT22;10632;51.276;7.116;2023-10-09T12:59:39;18.10;99.90
20946;DHT22;10632;51.276;7.116;2023-10-09T13:02:12;18.20;99.90
20946;DHT22;10632;51.276;7.116;2023-10-09T13:04:53;18.20;99.90
20946;DHT22;10632;51.276;7.116;2023-10-09T13:07:20;18.20;99.90
20946;DHT22;10632;51.276;7.116;2023-10-09T13:09:48;18.20;99.90
20946;DHT22;10632;51.276;7.116;2023-10-09T13:12:34;18.30;99.90
20946;DHT22;10632;51.276;7.116;2023-10-09T13:15:05;18.20;99.90
20946;DHT22;10632;51.276;7.116;2023-10-09T13:17:36;18.20;99.90
20946;DHT22;10632;51.276;7.116;2023-10-09T13:20:03;18.30;99.90
20946;DHT22;10632;51.276;7.116;2023-10-09T13:22:38;18.20;99.90
20946;DHT22;10632;51.276;7.116;2023-10-09T13:25:07;18.20;99.90
20946;DHT22;10632;51.276;7.116;2023-10-09T13:27:40;18.20;99.90
20946;DHT22;10632;51.276;7.116;2023-10-09T13:30:08;18.20;99.90
20946;DHT22;10632;51.276;7.116;2023-10-09T13:32:40;18.20;99.90
20946;DHT22;10632;51.276;7.116;2023-10-09T13:35:14;18.20;99.90
20946;DHT22;10632;51.276;7.116;2023-10-09T13:37:41;18.20;99.90
20946;DHT22;10632;51.276;7.116;2023-10-09T13:40:09;18.20;99.90
20946;DHT22;10632;51.276;7.116;2023-10-09T13:42:45;18.30;99.90
20946;DHT22;10632;51.276;7.116;2023-10-09T13:45:13;18.20;99.90
20946;DHT22;10632;51.276;7.116;2023-10-09T13:47:43;18.30;99.90
20946;DHT22;10632;51.276;7.116;2023-10-09T13:50:17;18.30;99.90
20946;DHT22;10632;51.276;7.116;2023-10-09T13:52:47;18.30;99.90
20946;DHT22;10632;51.276;7.116;2023-10-09T13:55:14;18.30;99.90
20946;DHT22;10632;51.276;7.116;2023-10-09T13:57:44;18.30;99.90
20946;DHT22;10632;51.276;7.116;2023-10-09T14:00:13;18.30;99.90
20946;DHT22;10632;51.276;7.116;2023-10-09T14:02:44;18.30;99.90
20946;DHT22;10632;51.276;7.116;2023-10-09T14:05:12;18.40;99.90
20946;DHT22;10632;51.276;7.116;2023-10-09T14:07:39;18.40;99.90
20946;DHT22;10632;51.276;7.116;2023-10-09T14:10:07;18.40;99.90
20946;DHT22;10632;51.276;7.116;2023-10-09T14:12:43;18.50;99.90
20946;DHT22;10632;51.276;7.116;2023-10-09T14:15:10;18.60;99.90
20946;DHT22;10632;51.276;7.116;2023-10-09T14:17:44;18.60;99.90
20946;DHT22;10632;51.276;7.116;2023-10-09T14:20:12;18.60;99.90
20946;DHT22;10632;51.276;7.116;2023-10-09T14:22:57;18.60;99.90
20946;DHT22;10632;51.276;7.116;2023-10-09T14:25:32;18.60;99.90
20946;DHT22;10632;51.276;7.116;2023-10-09T14:27:59;18.60;99.90
20946;DHT22;10632;51.276;7.116;2023-10-09T14:30:26;18.50;99.90
20946;DHT22;10632;51.276;7.116;2023-10-09T14:33:00;18.50;99.90
20946;DHT22;10632;51.276;7.116;2023-10-09T14:35:31;18.40;99.90
20946;DHT22;10632;51.276;7.116;2023-10-09T14:37:59;18.40;99.90
20946;DHT22;10632;51.276;7.116;2023-10-09T14:40:27;18.30;99.90
20946;DHT22;10632;51.276;7.116;2023-10-09T14:42:57;18.30;99.90
20946;DHT22;10632;51.276;7.116;2023-10-09T14:45:27;18.30;99.90
20946;DHT22;10632;51.276;7.116;2023-10-09T14:47:54;18.30;99.90
20946;DHT22;10632;51.276;7.116;2023-10-09T14:50:22;18.30;99.90
20946;DHT22;10632;51.276;7.116;2023-10-09T14:52:49;18.20;99.90
20946;DHT22;10632;51.276;7.116;2023-10-09T14:55:17;18.20;99.90
20946;DHT22;10632;51.276;7.116;2023-10-09T14:57:47;18.20;99.90
20946;DHT22;10632;51.276;7.116;2023-10-09T15:00:16;18.20;99.90
20946;DHT22;10632;51.276;7.116;2023-10-09T15:02:49;18.20;99.90
20946;DHT22;10632;51.276;7.116;2023-10-09T15:05:16;18.20;99.90
20946;DHT22;10632;51.276;7.116;2023-10-09T15:07:44;18.20;99.90
20946;DHT22;10632;51.276;7.116;2023-10-09T15:10:12;18.10;99.90
20946;DHT22;10632;51.276;7.116;2023-10-09T15:12:41;18.10;99.90
20946;DHT22;10632;51.276;7.116;2023-10-09T15:15:10;18.00;99.90
20946;DHT22;10632;51.276;7.116;2023-10-09T15:17:39;18.00;99.90
20946;DHT22;10632;51.276;7.116;2023-10-09T15:20:11;18.00;99.90
20946;DHT22;10632;51.276;7.116;2023-10-09T15:22:40;18.00;99.90
20946;DHT22;10632;51.276;7.116;2023-10-09T15:25:09;18.00;99.90
20946;DHT22;10632;51.276;7.116;2023-10-09T15:27:40;18.00;99.90
20946;DHT22;10632;51.276;7.116;2023-10-09T15:30:07;17.90;99.90
20946;DHT22;10632;51.276;7.116;2023-10-09T15:32:39;17.90;99.90
20946;DHT22;10632;51.276;7.116;2023-10-09T15:35:07;17.90;99.90
20946;DHT22;10632;51.276;7.116;2023-10-09T15:37:38;17.90;99.90
20946;DHT22;10632;51.276;7.116;2023-10-09T15:40:10;17.80;99.90
20946;DHT22;10632;51.276;7.116;2023-10-09T15:42:39;17.80;99.90
20946;DHT22;10632;51.276;7.116;2023-10-09T15:45:07;17.80;99.90
20946;DHT22;10632;51.276;7.116;2023-10-09T15:47:34;17.80;99.90
20946;DHT22;10632;51.276;7.116;2023-10-09T15:50:02;17.80;99.90
20946;DHT22;10632;51.276;7.116;2023-10-09T15:52:29;17.80;99.90
20946;DHT22;10632;51.276;7.116;2023-10-09T15:54:57;17.80;99.90
20946;DHT22;10632;51.276;7.116;2023-10-09T15:57:25;17.80;99.90
20946;DHT22;10632;51.276;7.116;2023-10-09T15:59:52;17.80;99.90
20946;DHT22;10632;51.276;7.116;2023-10-09T16:02:22;17.80;99.90
20946;DHT22;10632;51.276;7.116;2023-10-09T16:04:50;17.80;99.90
20946;DHT22;10632;51.276;7.116;2023-10-09T16:07:21;17.80;99.90
20946;DHT22;10632;51.276;7.116;2023-10-09T16:09:52;17.80;99.90
20946;DHT22;10632;51.276;7.116;2023-10-09T16:12:21;17.80;99.90
20946;DHT22;10632;51.276;7.116;2023-10-09T16:14:53;17.80;99.90